Bentonville, AR (72712)

7:29 PM CST on December 09, 2016 (GMT -0600)
KARBENTO2 | | Change Station

Elev 1289 ft 36.36 °N, 94.20 °W | Updated 7 seconds ago

Overcast
Overcast
32.6 °F
Feels Like 33 °F
N
0.0
Wind Variable Wind from ENE
Gusts 0.0 mph

Today
High -- | Low -- °F
--% Chance of Precip.
Yesterday
High -- | Low -- °F
Precip. -- in
Pressure 30.50 in
Visibility 10.0 miles
Clouds Overcast 5500 ft
Windchill 33 °F
Dew Point 17 °F
Humidity 52%
Rainfall 0.00 in
Snow Depth Not available.
7:17 AM 5:01 PM
Waxing Gibbous, 79% visible
METAR KVBT 100115Z AUTO 00000KT 10SM OVC055 01/M11 A3050 RMK AO1
Pressure 30.50 in
Visibility 10.0 miles
Clouds Overcast 5500 ft
Windchill 33 °F
Dew Point 17 °F
Humidity 52%
Rainfall 0.00 in
Snow Depth Not available.
7:17 AM 5:01 PM
Waxing Gibbous, 79% visible
METAR KVBT 100115Z AUTO 00000KT 10SM OVC055 01/M11 A3050 RMK AO1

10-Day Weather Forecast

Almanac

Astronomy

Dec. 09, 2016 Rise Set
Actual Time
Civil Twilight
Nautical Twilight
Astronomical Twilight
Moon
Length of Visible Light
Length of Day
Tomorrow will be .
, % of the Moon is Illuminated

Today's Extremes

State Highs State Lows

Community

WunderPhotos

Upload Photos

1,956,534 photos uploaded!

WunderBlog® & News

Nearby

Air Quality

  Air Quality AQ Index Pollutant
Not available.

Snow Depth

Station Depth Elevation

Earthquake Activity

City Distance Mag. Time & Date
Minimum magnitude displayed is 2.5.

Coastal Water Temperatures

Place Temperature

Stations

Nearby Weather Stations

Station Location Temp. Windchill Dew Point Humidity Wind Precip. Elev Updated Type
                   

Watches & Warnings

There are currently no watches in effect.